Time,TemperatureF,DewpointF,PressureIn,WindDirection,WindDirectionDegrees,WindSpeedMPH,WindSpeedGustMPH,Humidity,HourlyPrecipIn,Conditions,Clouds,dailyrainin,SoftwareType,DateUTC
2013-04-23 00:00:00,62.0,41.5,29.88,East,90,0.0,5.0,47,0.00,,,-99.99,WeatherLink 6.0.0,2013-04-23 07:00:00,
2013-04-23 00:30:00,64.0,37.2,29.88,East,90,1.0,7.0,37,0.00,,,-99.99,WeatherLink 6.0.0,2013-04-23 07:30:00,
2013-04-23 01:00:00,64.6,34.8,29.89,ESE,112,0.0,5.0,33,0.00,,,-99.99,WeatherLink 6.0.0,2013-04-23 08:00:00,
2013-04-23 01:30:00,64.5,34.0,29.90,NE,45,0.0,3.0,32,0.00,,,-99.99,WeatherLink 6.0.0,2013-04-23 08:30:00,
2013-04-23 02:00:00,64.3,32.2,29.89,ENE,67,0.0,6.0,30,0.00,,,-99.99,WeatherLink 6.0.0,2013-04-23 09:00:00,
2013-04-23 02:30:00,64.4,31.4,29.89,East,90,1.0,7.0,29,0.00,,,-99.99,WeatherLink 6.0.0,2013-04-23 09:30:00,
2013-04-23 03:00:00,64.0,29.3,29.90,North,0,1.0,8.0,27,0.00,,,-99.99,WeatherLink 6.0.0,2013-04-23 10:00:00,
2013-04-23 03:30:00,64.4,26.8,29.90,NE,45,2.0,10.0,24,0.00,,,-99.99,WeatherLink 6.0.0,2013-04-23 10:30:00,
2013-04-23 04:00:00,63.4,24.9,29.89,North,0,2.0,6.0,23,0.00,,,-99.99,WeatherLink 6.0.0,2013-04-23 11:00:00,
2013-04-23 04:30:00,63.0,23.5,29.89,NE,45,2.0,10.0,22,0.00,,,-99.99,WeatherLink 6.0.0,2013-04-23 11:30:00,
2013-04-23 05:00:00,62.5,23.1,29.89,NNE,22,3.0,10.0,22,0.00,,,-99.99,WeatherLink 6.0.0,2013-04-23 12:00:00,
2013-04-23 05:30:00,61.4,23.2,29.89,NE,45,2.0,8.0,23,0.00,,,-99.99,WeatherLink 6.0.0,2013-04-23 12:30:00,
2013-04-23 06:00:00,61.3,21.0,29.90,NE,45,2.0,10.0,21,0.00,,,-99.99,WeatherLink 6.0.0,2013-04-23 13:00:00,
2013-04-23 06:30:00,60.8,21.7,29.90,ENE,67,2.0,9.0,22,0.00,,,-99.99,WeatherLink 6.0.0,2013-04-23 13:30:00,
2013-04-23 07:00:00,60.8,22.7,29.90,North,355,2.0,3.0,23,0.00,,,0.00,Wunderground v.1.15,2013-04-23 14:00:00,
2013-04-23 07:10:00,61.5,21.2,29.91,NNE,31,3.0,3.0,21,0.00,,,0.00,Wunderground v.1.15,2013-04-23 14:10:00,
2013-04-23 07:20:00,61.9,21.5,29.91,NE,46,3.0,8.0,21,0.00,,,0.00,Wunderground v.1.15,2013-04-23 14:20:00,
2013-04-23 07:30:00,62.3,24.0,29.91,NNE,26,2.0,2.0,23,0.00,,,0.00,Wunderground v.1.15,2013-04-23 14:30:00,
2013-04-23 07:40:00,62.6,25.3,29.91,NNE,19,1.0,2.0,24,0.00,,,0.00,Wunderground v.1.15,2013-04-23 14:40:00,
2013-04-23 07:50:00,63.0,24.6,29.92,NE,44,1.0,1.0,23,0.00,,,0.00,Wunderground v.1.15,2013-04-23 14:50:00,
2013-04-23 08:00:00,63.5,25.0,29.92,NNE,21,1.0,2.0,23,0.00,,,0.00,Wunderground v.1.15,2013-04-23 15:00:00,
2013-04-23 08:10:00,62.4,30.5,29.92,WNW,288,1.0,1.0,30,0.00,,,0.00,Wunderground v.1.15,2013-04-23 15:10:00,
2013-04-23 08:20:00,61.4,28.0,29.92,NNE,30,0.0,1.0,28,0.00,,,0.00,Wunderground v.1.15,2013-04-23 15:20:00,
2013-04-23 08:30:00,63.4,28.8,29.92,NE,39,1.0,1.0,27,0.00,,,0.00,Wunderground v.1.15,2013-04-23 15:30:00,
2013-04-23 08:40:00,65.4,27.6,29.92,NNE,28,1.0,1.0,24,0.00,,,0.00,Wunderground v.1.15,2013-04-23 15:40:00,
2013-04-23 08:50:00,65.9,35.2,29.92,WSW,254,2.0,2.0,32,0.00,,,0.00,Wunderground v.1.15,2013-04-23 15:50:00,
2013-04-23 09:00:00,63.7,36.9,29.92,WSW,254,1.0,2.0,37,0.00,,,0.00,Wunderground v.1.15,2013-04-23 16:00:00,
2013-04-23 09:10:00,63.1,38.4,29.92,West,269,1.0,1.0,40,0.00,,,0.00,Wunderground v.1.15,2013-04-23 16:10:00,
2013-04-23 09:20:00,63.8,39.6,29.92,West,269,1.0,1.0,41,0.00,,,0.00,Wunderground v.1.15,2013-04-23 16:20:00,
2013-04-23 09:30:00,65.5,34.0,29.92,NW,312,0.0,0.0,31,0.00,,,0.00,Wunderground v.1.15,2013-04-23 16:30:00,
2013-04-23 09:40:00,68.5,39.8,29.93,WNW,287,1.0,1.0,35,0.00,,,0.00,Wunderground v.1.15,2013-04-23 16:40:00,
2013-04-23 09:50:00,68.9,37.8,29.93,WNW,284,0.0,1.0,32,0.00,,,0.00,Wunderground v.1.15,2013-04-23 16:50:00,
2013-04-23 10:00:00,69.1,41.7,29.93,WNW,284,0.0,1.0,37,0.00,,,0.00,Wunderground v.1.15,2013-04-23 17:00:00,
2013-04-23 10:10:00,68.6,43.3,29.93,West,267,1.0,2.0,40,0.00,,,0.00,Wunderground v.1.15,2013-04-23 17:10:00,
2013-04-23 10:20:00,67.2,42.7,29.94,WNW,290,1.0,1.0,41,0.00,,,0.00,Wunderground v.1.15,2013-04-23 17:20:00,
2013-04-23 10:30:00,66.6,40.9,29.94,WNW,289,1.0,1.0,39,0.00,,,0.00,Wunderground v.1.15,2013-04-23 17:30:00,
2013-04-23 10:40:00,66.9,41.8,29.94,WNW,284,1.0,1.0,40,0.00,,,0.00,Wunderground v.1.15,2013-04-23 17:40:00,
2013-04-23 10:50:00,67.9,42.7,29.94,West,259,1.0,1.0,40,0.00,,,0.00,Wunderground v.1.15,2013-04-23 17:50:00,
2013-04-23 11:00:00,69.1,43.1,29.94,West,279,0.0,0.0,39,0.00,,,0.00,Wunderground v.1.15,2013-04-23 18:00:00,
2013-04-23 11:10:00,69.4,42.0,29.95,West,275,1.0,1.0,37,0.00,,,0.00,Wunderground v.1.15,2013-04-23 18:10:00,
2013-04-23 11:20:00,70.1,42.6,29.94,West,275,1.0,1.0,37,0.00,,,0.00,Wunderground v.1.15,2013-04-23 18:20:00,
2013-04-23 11:30:00,70.7,40.9,29.94,West,260,2.0,2.0,34,0.00,,,0.00,Wunderground v.1.15,2013-04-23 18:30:00,
2013-04-23 11:40:00,71.5,40.1,29.94,West,274,2.0,2.0,32,0.00,,,0.00,Wunderground v.1.15,2013-04-23 18:40:00,
2013-04-23 11:50:00,72.0,40.5,29.94,West,271,2.0,2.0,32,0.00,,,0.00,Wunderground v.1.15,2013-04-23 18:50:00,
2013-04-23 12:00:00,72.8,39.5,29.94,West,265,2.0,3.0,30,0.00,,,0.00,Wunderground v.1.15,2013-04-23 19:00:00,
2013-04-23 12:10:00,73.7,41.2,29.93,West,264,1.0,4.0,31,0.00,,,0.00,Wunderground v.1.15,2013-04-23 19:10:00,
2013-04-23 12:20:00,73.9,40.5,29.93,West,277,2.0,2.0,30,0.00,,,0.00,Wunderground v.1.15,2013-04-23 19:20:00,
2013-04-23 12:30:00,74.2,40.8,29.93,WNW,294,2.0,2.0,30,0.00,,,0.00,Wunderground v.1.15,2013-04-23 19:30:00,
2013-04-23 12:40:00,75.3,39.9,29.93,WNW,295,1.0,1.0,28,0.00,,,0.00,Wunderground v.1.15,2013-04-23 19:40:00,
2013-04-23 12:50:00,75.4,40.0,29.93,WNW,284,2.0,2.0,28,0.00,,,0.00,Wunderground v.1.15,2013-04-23 19:50:00,
2013-04-23 13:00:00,74.9,38.7,29.92,West,281,3.0,3.0,27,0.00,,,0.00,Wunderground v.1.15,2013-04-23 20:00:00,
2013-04-23 13:10:00,75.9,38.5,29.92,West,266,2.0,3.0,26,0.00,,,0.00,Wunderground v.1.15,2013-04-23 20:10:00,
2013-04-23 13:20:00,76.8,40.3,29.92,West,263,1.0,1.0,27,0.00,,,0.00,Wunderground v.1.15,2013-04-23 20:20:00,
2013-04-23 13:30:00,76.4,38.0,29.92,NNW,348,3.0,3.0,25,0.00,,,0.00,Wunderground v.1.15,2013-04-23 20:30:00,
2013-04-23 13:40:00,76.5,38.0,29.92,WNW,288,2.0,2.0,25,0.00,,,0.00,Wunderground v.1.15,2013-04-23 20:40:00,
2013-04-23 13:50:00,77.3,35.5,29.91,West,276,2.0,4.0,22,0.00,,,0.00,Wunderground v.1.15,2013-04-23 20:50:00,
2013-04-23 14:00:00,78.0,34.9,29.91,WNW,290,2.0,2.0,21,0.00,,,0.00,Wunderground v.1.15,2013-04-23 21:00:00,
2013-04-23 14:10:00,78.0,36.1,29.91,West,279,2.0,6.0,22,0.00,,,0.00,Wunderground v.1.15,2013-04-23 21:10:00,
2013-04-23 14:20:00,77.6,35.7,29.91,West,273,3.0,3.0,22,0.00,,,0.00,Wunderground v.1.15,2013-04-23 21:20:00,
2013-04-23 14:30:00,77.8,34.7,29.91,West,262,3.0,3.0,21,0.00,,,0.00,Wunderground v.1.15,2013-04-23 21:30:00,
2013-04-23 14:40:00,77.6,35.7,29.91,West,269,3.0,3.0,22,0.00,,,0.00,Wunderground v.1.15,2013-04-23 21:40:00,
2013-04-23 14:50:00,78.3,32.6,29.91,West,267,2.0,3.0,19,0.00,,,0.00,Wunderground v.1.15,2013-04-23 21:50:00,
2013-04-23 15:00:00,77.7,34.6,29.91,West,268,3.0,3.0,21,0.00,,,0.00,Wunderground v.1.15,2013-04-23 22:00:00,
2013-04-23 15:10:00,79.3,33.4,29.90,WNW,291,2.0,2.0,19,0.00,,,0.00,Wunderground v.1.15,2013-04-23 22:10:00,
2013-04-23 15:20:00,79.3,36.0,29.90,West,280,2.0,2.0,21,0.00,,,0.00,Wunderground v.1.15,2013-04-23 22:20:00,
2013-04-23 15:30:00,80.1,34.1,29.90,West,261,1.0,4.0,19,0.00,,,0.00,Wunderground v.1.15,2013-04-23 22:30:00,
2013-04-23 15:40:00,79.5,33.6,29.90,West,273,2.0,4.0,19,0.00,,,0.00,Wunderground v.1.15,2013-04-23 22:40:00,
2013-04-23 15:50:00,79.7,33.8,29.89,WNW,286,2.0,2.0,19,0.00,,,0.00,Wunderground v.1.15,2013-04-23 22:50:00,
2013-04-23 16:00:00,80.2,34.2,29.89,West,275,1.0,1.0,19,0.00,,,0.00,Wunderground v.1.15,2013-04-23 23:00:00,
2013-04-23 16:10:00,80.5,33.1,29.89,West,273,1.0,1.0,18,0.00,,,0.00,Wunderground v.1.15,2013-04-23 23:10:00,
2013-04-23 16:20:00,80.7,33.2,29.89,NW,317,1.0,2.0,18,0.00,,,0.00,Wunderground v.1.15,2013-04-23 23:20:00,
2013-04-23 16:30:00,80.6,31.7,29.88,NNW,344,1.0,1.0,17,0.00,,,0.00,Wunderground v.1.15,2013-04-23 23:30:00,
2013-04-23 16:40:00,80.6,31.7,29.88,West,263,2.0,4.0,17,0.00,,,0.00,Wunderground v.1.15,2013-04-23 23:40:00,
2013-04-23 16:50:00,80.2,32.8,29.88,WSW,246,2.0,2.0,18,0.00,,,0.00,Wunderground v.1.15,2013-04-23 23:50:00,
2013-04-23 17:00:00,80.1,31.3,29.88,SW,236,1.0,2.0,17,0.00,,,0.00,Wunderground v.1.15,2013-04-24 00:00:00,
2013-04-23 17:10:00,80.4,33.0,29.87,North,355,1.0,3.0,18,0.00,,,0.00,Wunderground v.1.15,2013-04-24 00:10:00,
2013-04-23 17:20:00,80.6,30.2,29.87,NNW,328,1.0,1.0,16,0.00,,,0.00,Wunderground v.1.15,2013-04-24 00:20:00,
2013-04-23 17:30:00,80.6,30.2,29.87,West,267,1.0,1.0,16,0.00,,,0.00,Wunderground v.1.15,2013-04-24 00:30:00,
2013-04-23 17:40:00,80.4,31.6,29.87,WSW,255,1.0,2.0,17,0.00,,,0.00,Wunderground v.1.15,2013-04-24 00:40:00,
2013-04-23 17:50:00,80.2,29.9,29.87,South,170,1.0,3.0,16,0.00,,,0.00,Wunderground v.1.15,2013-04-24 00:50:00,
2013-04-23 18:00:00,79.4,33.5,29.87,West,260,1.0,1.0,19,0.00,,,0.00,Wunderground v.1.15,2013-04-24 01:00:00,
2013-04-23 18:10:00,79.2,34.6,29.87,West,277,1.0,3.0,20,0.00,,,0.00,Wunderground v.1.15,2013-04-24 01:10:00,
2013-04-23 18:20:00,78.8,31.7,29.87,West,270,2.0,2.0,18,0.00,,,0.00,Wunderground v.1.15,2013-04-24 01:20:00,
2013-04-23 18:30:00,78.6,32.9,29.87,West,265,1.0,1.0,19,0.00,,,0.00,Wunderground v.1.15,2013-04-24 01:30:00,
2013-04-23 18:40:00,78.8,33.0,29.86,West,273,0.0,1.0,19,0.00,,,0.00,Wunderground v.1.15,2013-04-24 01:40:00,
2013-04-23 18:50:00,78.5,34.1,29.86,West,267,1.0,1.0,20,0.00,,,0.00,Wunderground v.1.15,2013-04-24 01:50:00,
2013-04-23 19:00:00,77.9,34.8,29.86,West,280,0.0,0.0,21,0.00,,,0.00,Wunderground v.1.15,2013-04-24 02:00:00,
2013-04-23 19:10:00,77.5,35.6,29.86,West,280,0.0,0.0,22,0.00,,,0.00,Wunderground v.1.15,2013-04-24 02:10:00,
2013-04-23 19:20:00,76.7,35.0,29.86,West,280,0.0,0.0,22,0.00,,,0.00,Wunderground v.1.15,2013-04-24 02:20:00,
2013-04-23 19:30:00,75.5,36.2,29.85,West,280,0.0,0.0,24,0.00,,,0.00,Wunderground v.1.15,2013-04-24 02:30:00,
2013-04-23 19:40:00,74.4,35.2,29.85,West,280,0.0,0.0,24,0.00,,,0.00,Wunderground v.1.15,2013-04-24 02:40:00,
2013-04-23 19:50:00,73.1,35.2,29.86,West,280,0.0,0.0,25,0.00,,,0.00,Wunderground v.1.15,2013-04-24 02:50:00,
2013-04-23 20:04:00,72.1,35.3,29.86,North,-999,0.0,0.0,26,0.00,,,-99.99,WeatherLink 6.0.0,2013-04-24 03:04:00,
2013-04-23 20:10:00,71.1,33.5,29.86,West,280,0.0,0.0,25,0.00,,,0.00,Wunderground v.1.15,2013-04-24 03:10:00,
2013-04-23 20:20:00,70.3,32.8,29.86,West,280,0.0,0.0,25,0.00,,,0.00,Wunderground v.1.15,2013-04-24 03:20:00,
2013-04-23 20:33:00,69.5,33.1,29.86,North,-999,0.0,0.0,26,0.00,,,-99.99,WeatherLink 6.0.0,2013-04-24 03:33:00,
2013-04-23 21:00:00,68.0,36.2,29.87,North,-999,0.0,0.0,31,0.00,,,-99.99,WeatherLink 6.0.0,2013-04-24 04:00:00,
2013-04-23 21:30:00,66.2,36.2,29.87,West,270,0.0,1.0,33,0.00,,,-99.99,WeatherLink 6.0.0,2013-04-24 04:30:00,
2013-04-23 22:00:00,64.3,37.5,29.88,West,270,0.0,3.0,37,0.00,,,-99.99,WeatherLink 6.0.0,2013-04-24 05:00:00,
2013-04-23 22:30:00,62.8,37.5,29.88,NE,45,0.0,2.0,39,0.00,,,-99.99,WeatherLink 6.0.0,2013-04-24 05:30:00,
2013-04-23 23:00:00,61.1,39.0,29.88,ENE,67,0.0,3.0,44,0.00,,,-99.99,WeatherLink 6.0.0,2013-04-24 06:00:00,
2013-04-23 23:30:00,59.5,39.2,29.88,ENE,67,0.0,2.0,47,0.00,,,-99.99,WeatherLink 6.0.0,2013-04-24 06:30:00,